Time;durP1;ratioP1;P1;durP2;ratioP2;P2;SDS_P1;SDS_P2;PMS_P1;PMS_P2;Temp;Humidity;BMP_temperature;BMP_pressure;BME280_temperature;BME280_humidity;BME280_pressure;Samples;Min_cycle;Max_cycle;Signal;HPM_P1;HPM_P2
2023/05/25 03:01:09;;;;;;;20.13;18.50;;;8.20;99.90;;;;;;5608303;23;20253;-76
2023/05/25 03:03:35;;;;;;;20.93;19.33;;;8.20;99.90;;;;;;4956407;28;20200;-77
2023/05/25 03:06:03;;;;;;;21.33;19.93;;;8.30;99.90;;;;;;4958843;28;20775;-77
2023/05/25 03:08:30;;;;;;;25.77;23.57;;;8.40;99.90;;;;;;4960326;28;20221;-77
2023/05/25 03:10:56;;;;;;;22.13;20.67;;;8.50;99.90;;;;;;4954745;28;20210;-77
2023/05/25 03:13:21;;;;;;;16.93;15.33;;;8.60;99.90;;;;;;4939986;29;20193;-77
2023/05/25 03:15:47;;;;;;;19.53;18.07;;;8.60;99.90;;;;;;4936396;28;20192;-77
2023/05/25 03:18:13;;;;;;;13.03;11.87;;;8.70;99.90;;;;;;4934184;29;20192;-77
2023/05/25 03:20:40;;;;;;;10.07;8.53;;;8.70;99.90;;;;;;4953957;28;20213;-77
2023/05/25 03:23:06;;;;;;;9.37;7.80;;;8.80;99.90;;;;;;4953913;28;21756;-75
2023/05/25 03:25:31;;;;;;;12.10;7.83;;;8.80;99.90;;;;;;4952547;28;20276;-71
2023/05/25 03:27:57;;;;;;;14.23;9.43;;;8.90;99.90;;;;;;4949717;28;20192;-72
2023/05/25 03:30:23;;;;;;;12.80;9.33;;;9.00;99.90;;;;;;4933073;29;20669;-72
2023/05/25 03:32:49;;;;;;;11.57;8.27;;;9.10;99.90;;;;;;4951757;28;20201;-72
2023/05/25 03:35:15;;;;;;;10.07;7.80;;;9.10;99.90;;;;;;4933913;29;20189;-72
2023/05/25 03:37:41;;;;;;;11.13;8.33;;;9.10;99.90;;;;;;4951506;28;20217;-72
2023/05/25 03:40:08;;;;;;;9.30;8.50;;;9.10;99.90;;;;;;4934158;28;20193;-72
2023/05/25 03:42:34;;;;;;;12.03;7.67;;;9.10;99.90;;;;;;4951447;28;20614;-72
2023/05/25 03:45:00;;;;;;;15.17;9.60;;;9.20;99.90;;;;;;4952363;28;20194;-72
2023/05/25 03:47:26;;;;;;;9.27;8.20;;;9.20;99.90;;;;;;4935060;29;20208;-72
2023/05/25 03:49:51;;;;;;;9.00;8.03;;;9.20;99.90;;;;;;4952651;28;20663;-72
2023/05/25 03:52:17;;;;;;;10.90;9.87;;;9.30;99.90;;;;;;4952895;28;20214;-71
2023/05/25 03:54:43;;;;;;;12.80;10.27;;;9.30;99.90;;;;;;4928480;29;20273;-72
2023/05/25 03:57:09;;;;;;;18.60;17.07;;;9.40;99.90;;;;;;4951096;28;20586;-72
2023/05/25 03:59:34;;;;;;;18.90;17.57;;;9.40;99.90;;;;;;4936719;29;20195;-72
2023/05/25 04:02:00;;;;;;;18.03;16.43;;;9.40;99.90;;;;;;4934327;28;20276;-72
2023/05/25 04:04:26;;;;;;;15.53;14.20;;;9.40;99.90;;;;;;4952405;28;20241;-71
2023/05/25 04:06:52;;;;;;;15.77;14.27;;;9.50;99.90;;;;;;4935561;28;20197;-72
2023/05/25 04:09:19;;;;;;;18.97;16.00;;;9.50;99.90;;;;;;4940642;29;20193;-71
2023/05/25 04:11:45;;;;;;;13.10;11.87;;;9.50;99.90;;;;;;4939222;29;20264;-72
2023/05/25 04:14:11;;;;;;;16.53;14.83;;;9.50;99.90;;;;;;4935138;29;20193;-72
2023/05/25 04:16:36;;;;;;;17.83;14.20;;;9.50;99.90;;;;;;4952193;28;20217;-71
2023/05/25 04:19:02;;;;;;;22.20;19.87;;;9.60;99.90;;;;;;4935074;28;20611;-72
2023/05/25 04:21:28;;;;;;;17.30;15.77;;;9.60;99.90;;;;;;4952372;28;20209;-72
2023/05/25 04:23:54;;;;;;;20.30;18.43;;;9.60;99.90;;;;;;4952101;28;20189;-72
2023/05/25 04:26:20;;;;;;;21.17;19.63;;;9.70;99.90;;;;;;4935475;29;20198;-72
2023/05/25 04:28:45;;;;;;;16.30;14.97;;;9.70;99.90;;;;;;4935184;29;20249;-72
2023/05/25 04:31:14;;;;;;;12.83;11.63;;;9.70;99.90;;;;;;4935269;29;20228;-72
2023/05/25 04:33:40;;;;;;;13.40;11.87;;;9.80;99.90;;;;;;4952541;28;20190;-71
2023/05/25 04:36:07;;;;;;;13.10;11.73;;;9.90;99.90;;;;;;4952357;28;20224;-68
2023/05/25 04:38:34;;;;;;;16.70;10.30;;;9.90;99.90;;;;;;4951883;28;20193;-68
2023/05/25 04:41:01;;;;;;;16.17;14.80;;;10.00;99.90;;;;;;4952461;28;20240;-68
2023/05/25 04:43:28;;;;;;;19.07;17.63;;;10.10;99.90;;;;;;4952671;28;20642;-68
2023/05/25 04:45:55;;;;;;;29.23;27.07;;;10.20;99.90;;;;;;4952084;28;20194;-68
2023/05/25 04:48:23;;;;;;;37.77;35.17;;;10.30;99.90;;;;;;4938904;29;20233;-68
2023/05/25 04:50:49;;;;;;;73.83;69.30;;;10.40;99.90;;;;;;4951873;28;20209;-68
2023/05/25 04:53:15;;;;;;;48.90;46.10;;;10.50;99.90;;;;;;4934936;29;20283;-69
2023/05/25 04:55:41;;;;;;;36.57;34.17;;;10.60;99.90;;;;;;4958269;28;20190;-69
2023/05/25 04:58:06;;;;;;;62.23;58.33;;;10.70;99.90;;;;;;4951912;28;20204;-68
2023/05/25 05:00:33;;;;;;;40.03;37.13;;;10.80;99.90;;;;;;4951609;28;20711;-69
2023/05/25 05:02:59;;;;;;;14.47;11.30;;;11.00;99.90;;;;;;4935009;28;20229;-69
2023/05/25 05:05:25;;;;;;;12.50;8.27;;;11.30;99.90;;;;;;4934899;29;20186;-69
2023/05/25 05:07:52;;;;;;;19.50;14.07;;;11.70;99.90;;;;;;4951783;28;20573;-69
2023/05/25 05:10:18;;;;;;;24.87;22.47;;;12.20;99.90;;;;;;4955501;28;20194;-69
2023/05/25 05:12:44;;;;;;;15.37;13.90;;;12.80;99.90;;;;;;4955505;28;20190;-69
2023/05/25 05:15:10;;;;;;;10.90;7.83;;;13.40;99.90;;;;;;4936984;29;20740;-75
2023/05/25 05:17:36;;;;;;;10.63;8.07;;;13.80;99.90;;;;;;4936593;29;20270;-74
2023/05/25 05:20:03;;;;;;;11.90;10.80;;;14.50;99.90;;;;;;4956661;28;20754;-74
2023/05/25 05:22:31;;;;;;;19.77;18.37;;;15.00;99.90;;;;;;4943622;28;20237;-74
2023/05/25 05:24:58;;;;;;;10.80;9.70;;;15.50;99.90;;;;;;4954059;28;20284;-74
2023/05/25 05:27:25;;;;;;;13.20;7.17;;;15.90;99.90;;;;;;4954965;28;20197;-74
2023/05/25 05:29:51;;;;;;;13.27;11.90;;;16.20;99.90;;;;;;4955372;28;20221;-74
2023/05/25 05:32:17;;;;;;;15.67;14.43;;;16.60;99.90;;;;;;4955227;28;20244;-74
2023/05/25 05:34:43;;;;;;;14.53;11.37;;;16.80;99.90;;;;;;4938230;29;20193;-74
2023/05/25 05:37:08;;;;;;;11.47;10.33;;;17.10;99.90;;;;;;4954633;28;20661;-74
2023/05/25 05:39:34;;;;;;;14.60;13.27;;;17.10;99.90;;;;;;4954500;28;20281;-74
2023/05/25 05:42:00;;;;;;;9.10;8.20;;;17.10;99.90;;;;;;4953776;28;20714;-74
2023/05/25 05:44:26;;;;;;;10.63;9.50;;;17.30;99.90;;;;;;4938090;29;20197;-74
2023/05/25 05:46:52;;;;;;;12.63;9.70;;;17.60;99.90;;;;;;4954925;28;20193;-75
2023/05/25 05:49:17;;;;;;;13.75;8.80;;;17.80;99.90;;;;;;4937750;29;20721;-73
2023/05/25 05:51:43;;;;;;;7.93;7.10;;;17.30;99.90;;;;;;4955077;28;20721;-73
2023/05/25 05:54:09;;;;;;;9.40;5.87;;;17.10;99.90;;;;;;4962830;28;20669;-74
2023/05/25 05:56:35;;;;;;;9.30;6.20;;;16.90;99.90;;;;;;4937938;29;20292;-74
2023/05/25 05:59:00;;;;;;;10.63;6.67;;;17.00;99.90;;;;;;4955440;28;20240;-74
2023/05/25 06:01:26;;;;;;;12.27;9.60;;;16.80;99.90;;;;;;4955017;28;20228;-74
2023/05/25 06:03:53;;;;;;;12.17;9.67;;;16.60;99.90;;;;;;4938132;28;20251;-74
2023/05/25 06:06:20;;;;;;;9.20;6.07;;;17.00;99.90;;;;;;4937726;29;20658;-74
2023/05/25 06:08:46;;;;;;;11.98;6.47;;;17.50;99.90;;;;;;4937254;29;20248;-74
2023/05/25 06:11:11;;;;;;;12.13;6.60;;;17.60;99.90;;;;;;4954549;28;20248;-74
2023/05/25 06:13:37;;;;;;;10.33;7.87;;;17.80;99.90;;;;;;4954198;28;20450;-74
2023/05/25 06:16:03;;;;;;;9.45;6.85;;;17.60;99.90;;;;;;4936903;28;20715;-74
2023/05/25 06:18:29;;;;;;;11.03;8.13;;;17.50;99.90;;;;;;4936516;29;20927;-74
2023/05/25 06:20:55;;;;;;;15.43;8.25;;;17.80;99.90;;;;;;4953124;28;20265;-74
2023/05/25 06:23:20;;;;;;;10.63;6.97;;;17.40;99.90;;;;;;4954015;28;20190;-74
2023/05/25 06:25:46;;;;;;;7.50;6.67;;;16.80;99.90;;;;;;4953919;28;20197;-74
2023/05/25 06:28:14;;;;;;;10.33;8.77;;;16.60;99.90;;;;;;4953685;28;20192;-74
2023/05/25 06:30:40;;;;;;;15.93;14.23;;;16.40;99.90;;;;;;4953799;28;20209;-74
2023/05/25 06:33:07;;;;;;;19.97;16.90;;;16.20;99.90;;;;;;4956818;28;20641;-74
2023/05/25 06:35:32;;;;;;;12.97;11.77;;;16.00;99.90;;;;;;4957009;28;20637;-74
2023/05/25 06:37:58;;;;;;;13.17;9.17;;;15.70;99.90;;;;;;4953391;28;20224;-74
2023/05/25 06:40:24;;;;;;;14.33;8.90;;;15.60;99.90;;;;;;4953638;28;20249;-74
2023/05/25 06:42:50;;;;;;;12.33;8.50;;;15.60;99.90;;;;;;4953454;28;20681;-74
2023/05/25 06:45:16;;;;;;;9.63;7.60;;;15.90;99.90;;;;;;4953552;28;20221;-74
2023/05/25 06:47:41;;;;;;;11.57;10.17;;;16.20;99.90;;;;;;4953366;28;20197;-74
2023/05/25 06:50:08;;;;;;;15.23;13.67;;;16.00;99.90;;;;;;4936696;28;20670;-74
2023/05/25 06:52:33;;;;;;;28.67;26.57;;;15.80;99.90;;;;;;4953537;28;20204;-74
2023/05/25 06:54:59;;;;;;;28.43;26.23;;;15.60;99.90;;;;;;4953310;28;20193;-74
2023/05/25 06:57:25;;;;;;;34.00;31.27;;;15.70;99.90;;;;;;4936284;29;20228;-74
2023/05/25 06:59:51;;;;;;;47.13;44.13;;;15.70;99.90;;;;;;4961091;28;20177;-74
2023/05/25 07:02:17;;;;;;;64.83;60.80;;;15.70;99.90;;;;;;4957219;28;20697;-74
2023/05/25 07:04:43;;;;;;;71.83;67.43;;;15.40;99.90;;;;;;4939662;29;20266;-74
2023/05/25 07:07:10;;;;;;;76.50;71.70;;;15.40;99.90;;;;;;4952716;28;20201;-74
2023/05/25 07:09:36;;;;;;;72.87;68.47;;;15.40;99.90;;;;;;4935831;29;20195;-74
2023/05/25 07:12:06;;;;;;;58.23;54.53;;;15.30;99.90;;;;;;4953116;28;20209;-74
2023/05/25 07:14:33;;;;;;;49.50;46.40;;;15.40;99.90;;;;;;4960764;28;20259;-74
2023/05/25 07:16:58;;;;;;;65.17;61.23;;;15.40;99.90;;;;;;4952518;28;20320;-75
2023/05/25 07:19:24;;;;;;;70.83;66.47;;;15.60;99.90;;;;;;4935992;29;20276;-74
2023/05/25 07:21:50;;;;;;;71.33;66.70;;;15.60;99.90;;;;;;4935926;28;20581;-74
2023/05/25 07:24:17;;;;;;;70.87;66.50;;;15.70;99.90;;;;;;4952780;28;20713;-74
2023/05/25 07:26:43;;;;;;;50.40;47.13;;;16.00;99.90;;;;;;4935733;29;20680;-74
2023/05/25 07:29:09;;;;;;;29.03;26.90;;;16.30;99.90;;;;;;4935652;28;20253;-74
2023/05/25 07:31:35;;;;;;;18.63;16.90;;;16.30;99.90;;;;;;4952610;28;20213;-75
2023/05/25 07:34:01;;;;;;;14.43;12.33;;;16.40;99.90;;;;;;4952517;28;20585;-75
2023/05/25 07:36:27;;;;;;;12.70;7.93;;;16.70;99.90;;;;;;4952686;28;20304;-74
2023/05/25 07:38:52;;;;;;;17.80;8.30;;;17.10;99.90;;;;;;4952091;28;20256;-74
2023/05/25 07:41:18;;;;;;;12.27;9.03;;;16.90;99.90;;;;;;4935559;29;20305;-74
2023/05/25 07:43:44;;;;;;;10.73;9.63;;;17.10;99.90;;;;;;4952351;28;20616;-74
2023/05/25 07:46:10;;;;;;;17.87;9.90;;;16.90;99.90;;;;;;4935365;29;20685;-74
2023/05/25 07:48:36;;;;;;;15.57;12.47;;;17.10;99.90;;;;;;4934975;29;20197;-74
2023/05/25 07:51:02;;;;;;;15.80;14.50;;;17.40;99.90;;;;;;4952589;28;20209;-74
2023/05/25 07:53:28;;;;;;;18.47;15.47;;;17.60;99.90;;;;;;4952293;28;20196;-74
2023/05/25 07:55:53;;;;;;;18.77;17.23;;;17.60;99.90;;;;;;4952014;28;20222;-75
2023/05/25 07:58:19;;;;;;;16.60;12.97;;;18.10;99.90;;;;;;4952057;28;20188;-74
2023/05/25 08:00:45;;;;;;;13.83;10.73;;;18.40;99.90;;;;;;4935218;29;20551;-74
2023/05/25 08:03:11;;;;;;;13.07;7.18;;;18.90;99.90;;;;;;4952233;28;20186;-74
2023/05/25 08:05:36;;;;;;;12.00;6.90;;;19.30;99.90;;;;;;4952156;28;20300;-74
2023/05/25 08:08:02;;;;;;;11.02;7.72;;;19.00;99.90;;;;;;4934752;28;20208;-74
2023/05/25 08:10:31;;;;;;;13.77;10.10;;;19.30;99.90;;;;;;4935127;29;20768;-74
2023/05/25 08:12:57;;;;;;;13.45;12.15;;;19.40;99.90;;;;;;4934747;28;20186;-74
2023/05/25 08:15:25;;;;;;;16.38;14.77;;;19.30;99.90;;;;;;4935240;29;20197;-75
2023/05/25 08:17:51;;;;;;;22.00;15.82;;;19.50;99.90;;;;;;4951607;28;20217;-74
2023/05/25 08:20:17;;;;;;;17.80;16.25;;;19.70;99.90;;;;;;4935032;29;20196;-74
2023/05/25 08:22:42;;;;;;;11.45;8.93;;;19.30;99.90;;;;;;4952177;28;20186;-74
2023/05/25 08:25:08;;;;;;;8.50;7.63;;;18.60;99.90;;;;;;4934950;28;20201;-74
2023/05/25 08:27:35;;;;;;;10.88;7.82;;;18.30;99.90;;;;;;4951839;28;20189;-75
2023/05/25 08:30:01;;;;;;;9.83;7.77;;;18.50;99.90;;;;;;4952208;28;20225;-74
2023/05/25 08:32:26;;;;;;;10.68;7.32;;;18.90;99.90;;;;;;4942951;29;20229;-74
2023/05/25 08:34:52;;;;;;;10.30;9.05;;;19.10;99.90;;;;;;4952009;28;20189;-74
2023/05/25 08:37:20;;;;;;;13.55;10.65;;;19.20;99.90;;;;;;4951457;28;20206;-74
2023/05/25 08:39:45;;;;;;;16.75;14.00;;;19.60;99.90;;;;;;4934862;29;20604;-75
2023/05/25 08:42:11;;;;;;;15.43;14.18;;;20.00;99.90;;;;;;4951724;28;20240;-75
2023/05/25 08:44:38;;;;;;;15.63;14.23;;;20.50;99.90;;;;;;4955349;28;20635;-74
2023/05/25 08:47:06;;;;;;;13.63;12.38;;;20.20;99.90;;;;;;4955724;28;20231;-74
2023/05/25 08:49:37;;;;;;;17.83;16.48;;;20.60;99.90;;;;;;4956808;28;20273;-74
2023/05/25 08:52:03;;;;;;;11.48;10.00;;;20.80;99.90;;;;;;4956689;28;20224;-74
2023/05/25 08:54:35;;;;;;;9.88;8.15;;;21.20;99.90;;;;;;4956563;28;20213;-74
2023/05/25 08:57:05;;;;;;;10.68;7.28;;;21.20;99.80;;;;;;4939365;28;20221;-75
2023/05/25 08:59:44;;;;;;;9.65;6.75;;;21.70;99.90;;;;;;4955485;28;20193;-75
2023/05/25 09:02:32;;;;;;;10.57;8.05;;;22.20;98.60;;;;;;4955444;28;20225;-75
2023/05/25 09:05:00;;;;;;;12.88;10.93;;;22.50;98.10;;;;;;4938019;28;20268;-75
2023/05/25 09:07:26;;;;;;;19.98;18.27;;;22.90;96.60;;;;;;4938177;29;20673;-75
2023/05/25 09:09:53;;;;;;;31.38;29.20;;;23.10;95.70;;;;;;4938275;28;20499;-75
2023/05/25 09:12:20;;;;;;;22.45;20.65;;;23.70;95.20;;;;;;4938228;29;20210;-75
2023/05/25 09:14:46;;;;;;;28.90;27.00;;;23.80;94.00;;;;;;4955123;28;20194;-74
2023/05/25 09:17:14;;;;;;;30.70;28.70;;;23.00;94.80;;;;;;4937793;29;20260;-74
2023/05/25 09:19:40;;;;;;;27.60;25.10;;;22.70;95.30;;;;;;4955035;28;20200;-73
2023/05/25 09:22:06;;;;;;;29.00;27.00;;;22.70;94.40;;;;;;4954858;28;20214;-75
2023/05/25 09:24:33;;;;;;;29.77;27.75;;;22.50;95.30;;;;;;4954973;28;20673;-74
2023/05/25 09:26:59;;;;;;;28.63;26.52;;;22.90;95.00;;;;;;4954785;28;20322;-74
2023/05/25 09:29:25;;;;;;;14.23;12.85;;;23.30;94.30;;;;;;4955086;28;20563;-74
2023/05/25 09:31:51;;;;;;;9.93;8.70;;;23.90;92.90;;;;;;4954920;28;20217;-74
2023/05/25 09:34:19;;;;;;;11.82;8.77;;;23.60;92.30;;;;;;4955081;28;20221;-74
2023/05/25 09:36:45;;;;;;;9.90;6.15;;;24.10;92.40;;;;;;4954792;28;20365;-74
2023/05/25 09:39:11;;;;;;;8.95;6.10;;;24.20;91.50;;;;;;4954969;28;20204;-75
2023/05/25 09:41:40;;;;;;;7.53;5.88;;;23.60;91.80;;;;;;4937326;29;20296;-74
2023/05/25 09:44:06;;;;;;;7.60;6.72;;;23.80;92.10;;;;;;4953962;28;20212;-75
2023/05/25 09:46:35;;;;;;;9.50;6.60;;;23.90;92.30;;;;;;4954044;28;20196;-73
2023/05/25 09:49:07;;;;;;;6.00;5.50;;;24.20;91.20;;;;;;4953499;28;20651;-74
2023/05/25 09:51:35;;;;;;;8.00;6.72;;;23.50;91.50;;;;;;4954034;28;20214;-74
2023/05/25 09:54:02;;;;;;;11.40;8.90;;;23.70;91.90;;;;;;4936259;28;20244;-74
2023/05/25 09:56:30;;;;;;;9.40;7.07;;;23.90;92.60;;;;;;4953350;28;20578;-75
2023/05/25 09:58:56;;;;;;;17.00;15.45;;;24.60;90.70;;;;;;4936211;28;20181;-75
2023/05/25 10:01:23;;;;;;;25.55;23.75;;;25.20;90.20;;;;;;4953872;28;20221;-75
2023/05/25 10:03:55;;;;;;;23.50;21.75;;;25.40;89.30;;;;;;4954203;28;20182;-74
2023/05/25 10:06:24;;;;;;;25.27;23.45;;;25.40;88.30;;;;;;4958319;28;20543;-74
2023/05/25 10:08:51;;;;;;;23.25;21.67;;;25.60;87.40;;;;;;4955945;28;20203;-75
2023/05/25 10:11:20;;;;;;;29.73;27.75;;;25.80;86.00;;;;;;4953677;28;20221;-74
2023/05/25 10:13:46;;;;;;;20.95;19.58;;;25.40;86.40;;;;;;4936896;29;20673;-74
2023/05/25 10:16:17;;;;;;;25.23;23.27;;;25.10;86.90;;;;;;4937174;29;20315;-74
2023/05/25 10:18:53;;;;;;;21.10;19.50;;;24.40;86.80;;;;;;4936882;29;20201;-74
2023/05/25 10:21:21;;;;;;;9.57;7.97;;;23.90;89.70;;;;;;4936877;29;20304;-74
2023/05/25 10:23:51;;;;;;;12.18;10.82;;;23.70;90.40;;;;;;4936814;28;20188;-75
2023/05/25 10:26:22;;;;;;;12.05;10.95;;;24.40;89.50;;;;;;4962345;28;20201;-74
2023/05/25 10:29:00;;;;;;;15.05;14.02;;;24.50;90.00;;;;;;4961391;28;20197;-74
2023/05/25 10:31:28;;;;;;;21.17;19.75;;;24.90;88.70;;;;;;4953861;28;20727;-74
2023/05/25 10:33:55;;;;;;;21.77;20.27;;;24.90;87.60;;;;;;4936606;28;20280;-74
2023/05/25 10:36:22;;;;;;;23.67;22.08;;;25.10;86.80;;;;;;4953661;28;20233;-74
2023/05/25 10:38:50;;;;;;;29.42;27.73;;;25.50;85.30;;;;;;4953097;28;20182;-74
2023/05/25 10:41:18;;;;;;;25.42;23.83;;;25.20;84.70;;;;;;4936467;29;20300;-74
2023/05/25 10:43:44;;;;;;;21.25;19.85;;;25.70;85.20;;;;;;4936416;29;20190;-74
2023/05/25 10:46:11;;;;;;;18.50;16.77;;;26.80;81.40;;;;;;4953477;28;20666;-74
2023/05/25 10:48:48;;;;;;;18.38;17.08;;;26.30;81.70;;;;;;4953049;28;20225;-74
2023/05/25 10:51:14;;;;;;;28.05;26.15;;;26.30;81.60;;;;;;4936284;29;20217;-74
2023/05/25 10:53:44;;;;;;;26.92;25.38;;;25.80;81.60;;;;;;4953600;28;20610;-74
2023/05/25 10:56:12;;;;;;;33.80;31.58;;;25.80;81.30;;;;;;4953076;28;20272;-74
2023/05/25 10:58:42;;;;;;;29.08;27.10;;;25.40;83.20;;;;;;4935820;29;20185;-74
2023/05/25 11:01:11;;;;;;;24.73;23.17;;;25.70;82.40;;;;;;4953239;28;20221;-74
2023/05/25 11:03:46;;;;;;;26.80;25.05;;;25.60;82.90;;;;;;4953387;28;20646;-74
2023/05/25 11:06:20;;;;;;;30.17;28.40;;;25.60;82.30;;;;;;4959408;28;20663;-74
2023/05/25 11:08:57;;;;;;;22.70;21.33;;;26.00;82.30;;;;;;4957780;28;20185;-75
2023/05/25 11:11:41;;;;;;;18.55;17.25;;;26.70;80.00;;;;;;4953060;28;20299;-74
2023/05/25 11:14:19;;;;;;;30.00;28.20;;;26.10;80.20;;;;;;4935903;28;20212;-74
2023/05/25 11:17:13;;;;;;;28.17;26.30;;;25.10;81.60;;;;;;4953353;28;20743;-74
2023/05/25 11:19:47;;;;;;;27.95;25.77;;;25.60;81.10;;;;;;4954309;28;20193;-74
2023/05/25 11:22:16;;;;;;;32.30;29.48;;;25.40;81.00;;;;;;4954267;28;20244;-73
2023/05/25 11:24:45;;;;;;;29.83;27.90;;;24.90;81.90;;;;;;4936609;29;20564;-74
2023/05/25 11:27:11;;;;;;;21.27;19.98;;;24.20;83.70;;;;;;4952443;28;20197;-73
2023/05/25 11:29:38;;;;;;;17.80;16.13;;;23.80;85.20;;;;;;4935978;29;20570;-75
2023/05/25 11:32:10;;;;;;;21.17;19.95;;;23.90;85.80;;;;;;4952621;28;20224;-75
2023/05/25 11:34:36;;;;;;;22.90;21.25;;;24.80;84.20;;;;;;4953219;28;20565;-75
2023/05/25 11:37:02;;;;;;;31.73;29.52;;;26.40;80.90;;;;;;4952187;28;20224;-75
2023/05/25 11:39:30;;;;;;;21.50;19.80;;;26.10;79.10;;;;;;4952702;28;20243;-75
2023/05/25 11:42:06;;;;;;;13.43;12.50;;;26.60;79.00;;;;;;4952494;28;20577;-74
2023/05/25 11:44:35;;;;;;;22.27;20.75;;;26.50;77.70;;;;;;4952830;28;20658;-75
2023/05/25 11:47:07;;;;;;;19.20;17.45;;;26.20;79.60;;;;;;4952378;28;20197;-75
2023/05/25 11:49:44;;;;;;;7.63;6.85;;;26.60;78.20;;;;;;4952741;28;20564;-75
2023/05/25 11:52:18;;;;;;;7.72;6.57;;;27.40;76.60;;;;;;4935096;28;20221;-75
2023/05/25 11:54:45;;;;;;;11.98;11.07;;;26.70;76.20;;;;;;4952488;28;20300;-75
2023/05/25 11:57:16;;;;;;;17.42;16.23;;;25.90;77.90;;;;;;4951968;28;20240;-75
2023/05/25 11:59:56;;;;;;;29.52;27.85;;;25.80;79.00;;;;;;4952961;28;20193;-75
2023/05/25 12:02:23;;;;;;;28.25;26.45;;;25.40;79.90;;;;;;4935000;29;20229;-74
2023/05/25 12:04:56;;;;;;;24.55;22.67;;;25.50;80.10;;;;;;4952253;28;20272;-75
2023/05/25 12:07:23;;;;;;;8.00;6.22;;;26.70;78.50;;;;;;4952002;28;20204;-75
2023/05/25 12:09:49;;;;;;;5.93;5.32;;;28.40;74.10;;;;;;4960729;28;20284;-72
2023/05/25 12:12:15;;;;;;;6.25;5.65;;;29.60;71.20;;;;;;4935076;29;20357;-75
2023/05/25 12:14:50;;;;;;;9.65;6.13;;;29.10;69.80;;;;;;4952332;28;20224;-74
2023/05/25 12:17:17;;;;;;;6.40;5.80;;;28.00;72.20;;;;;;4951764;28;20220;-74
2023/05/25 12:19:44;;;;;;;7.57;5.47;;;27.50;74.10;;;;;;4955544;28;20208;-74
2023/05/25 12:22:12;;;;;;;9.80;6.10;;;27.70;72.70;;;;;;4939083;28;20234;-74
2023/05/25 12:24:39;;;;;;;8.05;5.15;;;28.00;73.20;;;;;;4956184;28;20277;-74
2023/05/25 12:27:16;;;;;;;6.60;5.70;;;28.80;71.50;;;;;;4938539;28;20712;-74
2023/05/25 12:29:46;;;;;;;8.07;6.10;;;28.70;72.00;;;;;;4956296;28;20197;-74
2023/05/25 12:32:12;;;;;;;6.00;5.40;;;28.00;71.80;;;;;;4956026;28;20213;-74
2023/05/25 12:34:38;;;;;;;6.00;5.50;;;27.00;73.10;;;;;;4955999;28;20569;-73
2023/05/25 12:37:03;;;;;;;8.43;5.43;;;27.20;73.80;;;;;;4938448;28;20225;-74
2023/05/25 12:39:29;;;;;;;7.85;5.32;;;27.70;71.70;;;;;;4955643;28;20178;-74
2023/05/25 12:42:00;;;;;;;7.55;5.75;;;28.90;70.70;;;;;;4955698;28;20213;-74
2023/05/25 12:44:34;;;;;;;6.75;6.05;;;29.20;69.10;;;;;;4955704;28;20213;-74
2023/05/25 12:47:14;;;;;;;5.95;5.45;;;29.70;68.50;;;;;;4955880;28;20200;-74
2023/05/25 12:49:44;;;;;;;6.70;5.55;;;29.80;66.80;;;;;;4955747;28;20194;-74
2023/05/25 12:52:10;;;;;;;8.27;6.13;;;29.00;67.20;;;;;;4955682;28;20214;-74
2023/05/25 12:54:43;;;;;;;8.18;4.70;;;27.80;69.40;;;;;;4955390;28;20572;-73
2023/05/25 12:57:16;;;;;;;10.95;8.13;;;26.30;71.70;;;;;;4955262;28;20272;-74
2023/05/25 12:59:44;;;;;;;8.13;7.25;;;25.70;74.70;;;;;;4938776;29;20563;-73
2023/05/25 13:02:11;;;;;;;6.57;6.00;;;25.50;76.40;;;;;;4955922;28;20225;-74
2023/05/25 13:04:39;;;;;;;7.38;6.15;;;25.70;76.30;;;;;;4938452;29;20193;-74
2023/05/25 13:07:07;;;;;;;11.27;7.35;;;26.00;75.70;;;;;;4955414;28;20591;-74
2023/05/25 13:09:33;;;;;;;13.90;6.30;;;26.20;76.10;;;;;;4938197;29;20196;-73
2023/05/25 13:12:01;;;;;;;11.30;6.70;;;26.40;75.10;;;;;;4955501;28;20206;-75
2023/05/25 13:14:28;;;;;;;10.40;7.55;;;26.50;75.70;;;;;;4955253;28;20193;-74
2023/05/25 13:16:55;;;;;;;12.27;7.13;;;26.50;74.90;;;;;;4955824;28;20311;-75
2023/05/25 13:19:23;;;;;;;9.85;5.97;;;26.90;72.20;;;;;;4944653;29;20189;-75
2023/05/25 13:21:50;;;;;;;6.57;5.97;;;28.50;70.80;;;;;;4938916;28;20578;-75
2023/05/25 13:24:18;;;;;;;6.78;6.07;;;29.70;67.10;;;;;;4957007;28;20818;-74
2023/05/25 13:26:44;;;;;;;9.90;6.80;;;28.70;65.50;;;;;;4955339;28;20185;-74
2023/05/25 13:29:11;;;;;;;8.20;6.70;;;27.90;68.20;;;;;;4954662;28;20252;-74
2023/05/25 13:31:37;;;;;;;7.63;6.18;;;27.70;68.80;;;;;;4955304;28;20213;-74
2023/05/25 13:34:03;;;;;;;9.68;6.10;;;28.10;68.30;;;;;;4955091;28;20665;-73
2023/05/25 13:36:31;;;;;;;9.30;6.30;;;29.00;65.20;;;;;;4954864;28;20210;-73
2023/05/25 13:38:58;;;;;;;9.30;5.93;;;28.50;66.20;;;;;;4945626;28;20565;-74
2023/05/25 13:41:23;;;;;;;9.48;6.00;;;27.60;69.30;;;;;;4937791;29;20210;-74
2023/05/25 13:43:49;;;;;;;9.15;6.38;;;27.30;70.40;;;;;;4954921;28;20190;-73
2023/05/25 13:46:15;;;;;;;11.05;7.22;;;26.60;70.70;;;;;;4937838;29;20186;-73
2023/05/25 13:48:46;;;;;;;8.63;7.75;;;26.20;73.20;;;;;;4954818;28;20190;-74
2023/05/25 13:51:15;;;;;;;9.18;7.88;;;25.80;73.50;;;;;;4955123;28;20220;-74
2023/05/25 13:53:42;;;;;;;9.25;6.63;;;26.50;72.60;;;;;;4955295;28;20699;-74
2023/05/25 13:56:08;;;;;;;8.93;6.50;;;27.70;70.60;;;;;;4955061;28;20213;-74
2023/05/25 13:58:35;;;;;;;7.65;5.78;;;28.40;67.70;;;;;;4954782;28;20276;-74
2023/05/25 14:01:02;;;;;;;10.70;6.35;;;27.40;68.20;;;;;;4954712;28;20221;-74
2023/05/25 14:03:27;;;;;;;11.73;10.52;;;28.00;68.90;;;;;;4954779;28;20240;-74
2023/05/25 14:05:53;;;;;;;10.02;7.43;;;29.40;65.30;;;;;;4954591;28;20190;-74
2023/05/25 14:08:19;;;;;;;7.03;6.15;;;30.30;62.90;;;;;;4937395;29;20601;-74
2023/05/25 14:10:45;;;;;;;7.05;6.40;;;30.70;63.20;;;;;;4954708;28;20282;-74
2023/05/25 14:13:10;;;;;;;9.18;6.88;;;29.60;63.70;;;;;;4954469;28;20194;-74
2023/05/25 14:15:36;;;;;;;9.52;8.60;;;29.80;63.80;;;;;;4954669;28;20198;-74
2023/05/25 14:18:02;;;;;;;10.05;7.45;;;30.10;62.30;;;;;;4953917;28;20304;-74
2023/05/25 14:20:30;;;;;;;8.90;8.05;;;29.40;63.70;;;;;;4954569;28;20296;-74
2023/05/25 14:22:56;;;;;;;7.93;7.00;;;28.90;63.10;;;;;;4954343;28;20182;-74
2023/05/25 14:25:22;;;;;;;6.07;5.50;;;28.70;64.10;;;;;;4937223;29;20617;-74
2023/05/25 14:27:48;;;;;;;10.52;6.35;;;28.10;65.50;;;;;;4953858;28;20207;-74
2023/05/25 14:30:13;;;;;;;8.25;6.53;;;27.70;66.30;;;;;;4937349;29;20728;-74
2023/05/25 14:32:39;;;;;;;10.73;7.68;;;28.80;66.10;;;;;;4954288;28;20567;-74
2023/05/25 14:35:05;;;;;;;10.18;6.95;;;30.60;62.00;;;;;;4954435;28;20204;-74
2023/05/25 14:37:31;;;;;;;8.02;6.80;;;30.30;60.10;;;;;;4962176;28;20305;-74
2023/05/25 14:39:59;;;;;;;7.65;6.82;;;30.40;60.90;;;;;;4954132;28;20182;-74
2023/05/25 14:42:25;;;;;;;10.18;9.30;;;30.10;62.50;;;;;;4953379;28;20202;-74
2023/05/25 14:44:50;;;;;;;12.90;8.02;;;30.50;59.90;;;;;;4954076;28;20718;-74
2023/05/25 14:47:16;;;;;;;10.15;7.32;;;30.10;58.90;;;;;;4953896;28;20236;-74
2023/05/25 14:49:42;;;;;;;10.25;9.35;;;29.80;59.80;;;;;;4953866;28;20665;-74
2023/05/25 14:52:08;;;;;;;16.17;14.57;;;30.30;59.90;;;;;;4953797;28;20276;-74
2023/05/25 14:54:34;;;;;;;15.68;14.55;;;30.80;57.80;;;;;;4936705;29;20201;-74
2023/05/25 14:57:00;;;;;;;12.38;11.15;;;29.90;58.70;;;;;;4936241;28;20725;-74
2023/05/25 14:59:26;;;;;;;8.48;7.60;;;29.40;60.50;;;;;;4936517;29;20201;-74
2023/05/25 15:01:52;;;;;;;10.23;6.68;;;28.50;62.30;;;;;;4953619;28;20225;-74
2023/05/25 15:04:17;;;;;;;8.80;7.20;;;27.50;63.80;;;;;;4936786;29;20193;-74
2023/05/25 15:06:43;;;;;;;8.02;6.35;;;26.60;66.00;;;;;;4953708;28;20185;-74
2023/05/25 15:09:09;;;;;;;8.82;6.07;;;26.00;67.60;;;;;;4953788;28;20292;-74
2023/05/25 15:11:35;;;;;;;7.13;6.43;;;25.40;68.50;;;;;;4936581;29;20264;-74
2023/05/25 15:14:00;;;;;;;9.13;6.65;;;26.30;67.20;;;;;;4936637;28;20233;-75
2023/05/25 15:16:26;;;;;;;7.82;5.70;;;27.90;65.10;;;;;;4953767;28;20296;-74
2023/05/25 15:18:52;;;;;;;11.43;7.93;;;29.00;61.40;;;;;;4936159;28;20197;-74
2023/05/25 15:21:18;;;;;;;9.38;5.82;;;29.30;61.40;;;;;;4953776;28;20209;-74
2023/05/25 15:23:43;;;;;;;9.30;5.75;;;29.60;59.60;;;;;;4936470;29;20200;-74
2023/05/25 15:26:10;;;;;;;10.20;6.97;;;29.00;61.60;;;;;;4935998;28;20565;-74
2023/05/25 15:28:36;;;;;;;7.97;6.68;;;29.20;60.60;;;;;;4936187;29;20398;-74
2023/05/25 15:31:02;;;;;;;7.00;6.30;;;29.20;59.20;;;;;;4936199;28;20209;-74
2023/05/25 15:33:29;;;;;;;7.78;6.20;;;28.70;61.50;;;;;;4953344;28;20197;-74
2023/05/25 15:35:54;;;;;;;8.68;7.80;;;29.20;60.60;;;;;;4953073;28;20198;-74